createdAt,value
2023-09-07T00:01:08.042Z,100165.11
2023-09-07T00:03:35.217Z,100171.37
2023-09-07T00:06:02.288Z,100168.52
2023-09-07T00:08:29.707Z,100178.02
2023-09-07T00:10:57.016Z,100182.83
2023-09-07T00:13:24.007Z,100183.05
2023-09-07T00:15:51.042Z,100185.41
2023-09-07T00:18:20.219Z,100181.21
2023-09-07T00:20:47.487Z,100181.17
2023-09-07T00:23:14.565Z,100185.26
2023-09-07T00:25:41.578Z,100187.17
2023-09-07T00:28:08.771Z,100182.25
2023-09-07T00:30:35.837Z,100181.94
2023-09-07T00:33:02.937Z,100181.44
2023-09-07T00:35:30.077Z,100178.85
2023-09-07T00:37:57.125Z,100176.14
2023-09-07T00:40:24.705Z,100177.94
2023-09-07T00:42:51.772Z,100171.72
2023-09-07T00:45:18.809Z,100172.09
2023-09-07T00:47:46.162Z,100171.30
2023-09-07T00:50:17.693Z,100178.08
2023-09-07T00:52:44.675Z,100179.27
2023-09-07T00:55:11.708Z,100177.46
2023-09-07T00:57:40.805Z,100177.00
2023-09-07T01:00:09.191Z,100179.55
2023-09-07T01:02:36.766Z,100178.98
2023-09-07T01:05:06.736Z,100176.96
2023-09-07T01:07:37.631Z,100177.47
2023-09-07T01:10:05.512Z,100178.84
2023-09-07T01:12:32.641Z,100175.64
2023-09-07T01:14:59.736Z,100180.55
2023-09-07T01:17:27.180Z,100179.05
2023-09-07T01:19:54.331Z,100176.02
2023-09-07T01:22:24.133Z,100176.25
2023-09-07T01:24:52.441Z,100177.41
2023-09-07T01:27:20.004Z,100179.75
2023-09-07T01:29:46.947Z,100182.15
2023-09-07T01:32:14.980Z,100188.22
2023-09-07T01:34:42.241Z,100186.34
2023-09-07T01:37:09.725Z,100186.28
2023-09-07T01:39:37.257Z,100186.54
2023-09-07T01:42:04.427Z,100188.51
2023-09-07T01:44:31.498Z,100192.70
2023-09-07T01:46:58.663Z,100194.59
2023-09-07T01:49:25.973Z,100195.99
2023-09-07T01:51:53.802Z,100195.98
2023-09-07T01:54:22.480Z,100198.04
2023-09-07T01:56:49.629Z,100197.98
2023-09-07T01:59:16.690Z,100196.06
2023-09-07T02:01:43.818Z,100197.50
2023-09-07T02:04:11.044Z,100194.70
2023-09-07T02:06:38.063Z,100195.73
2023-09-07T02:09:05.709Z,100193.75
2023-09-07T02:11:32.974Z,100191.27
2023-09-07T02:14:00.152Z,100190.06
2023-09-07T02:16:28.116Z,100190.96
2023-09-07T02:19:02.451Z,100192.36
2023-09-07T02:21:29.618Z,100191.69
2023-09-07T02:23:56.710Z,100199.85
2023-09-07T02:26:23.845Z,100202.92
2023-09-07T02:28:50.805Z,100204.33
2023-09-07T02:31:18.390Z,100207.77
2023-09-07T02:33:45.447Z,100207.36
2023-09-07T02:36:13.195Z,100203.88
2023-09-07T02:38:40.272Z,100208.64
2023-09-07T02:41:07.431Z,100209.34
2023-09-07T02:43:34.583Z,100214.41
2023-09-07T02:46:01.988Z,100210.35
2023-09-07T02:48:29.113Z,100210.16
2023-09-07T02:50:59.911Z,100210.48
2023-09-07T02:53:27.290Z,100214.98
2023-09-07T02:55:54.353Z,100217.71
2023-09-07T02:58:23.305Z,100217.88
2023-09-07T03:00:51.102Z,100221.77
2023-09-07T03:03:19.569Z,100222.63
2023-09-07T03:05:46.846Z,100223.86
2023-09-07T03:08:14.682Z,100228.41
2023-09-07T03:10:42.265Z,100228.34
2023-09-07T03:13:09.706Z,100232.45
2023-09-07T03:15:37.158Z,100232.11
2023-09-07T03:18:07.235Z,100232.45
2023-09-07T03:20:35.750Z,100237.44
2023-09-07T03:23:03.842Z,100239.73
2023-09-07T03:25:31.734Z,100241.33
2023-09-07T03:27:58.941Z,100241.00
2023-09-07T03:30:26.313Z,100247.06
2023-09-07T03:32:54.303Z,100246.95
2023-09-07T03:35:21.574Z,100249.58
2023-09-07T03:37:48.786Z,100252.29
2023-09-07T03:40:15.897Z,100256.27
2023-09-07T03:42:44.636Z,100258.16
2023-09-07T03:45:12.204Z,100262.61
2023-09-07T03:47:39.709Z,100258.21
2023-09-07T03:50:07.568Z,100262.87
2023-09-07T03:52:34.773Z,100261.64
2023-09-07T03:55:02.674Z,100267.70
2023-09-07T03:57:30.270Z,100272.73
2023-09-07T03:59:57.919Z,100276.03
2023-09-07T04:02:25.248Z,100282.05
2023-09-07T04:04:56.601Z,100283.09
2023-09-07T04:07:23.754Z,100280.05
2023-09-07T04:09:51.344Z,100283.39
2023-09-07T04:12:18.728Z,100287.11
2023-09-07T04:14:46.028Z,100291.75
2023-09-07T04:17:13.573Z,100295.35
2023-09-07T04:19:41.150Z,100299.13
2023-09-07T04:22:08.338Z,100305.00
2023-09-07T04:24:35.346Z,100306.46
2023-09-07T04:27:02.914Z,100305.69
2023-09-07T04:29:30.361Z,100309.04
2023-09-07T04:31:57.929Z,100307.64
2023-09-07T04:34:25.573Z,100310.58
2023-09-07T04:36:53.446Z,100312.55
2023-09-07T04:39:20.632Z,100316.55
2023-09-07T04:41:47.971Z,100319.59
2023-09-07T04:44:16.209Z,100321.39
2023-09-07T04:46:43.919Z,100330.17
2023-09-07T04:49:11.694Z,100335.55
2023-09-07T04:51:38.773Z,100333.08
2023-09-07T04:54:06.751Z,100336.75
2023-09-07T04:56:34.163Z,100340.23
2023-09-07T04:59:01.804Z,100344.48
2023-09-07T05:01:29.694Z,100344.95
2023-09-07T05:03:56.983Z,100350.21
2023-09-07T05:06:24.676Z,100352.60
2023-09-07T05:08:52.576Z,100355.34
2023-09-07T05:11:19.703Z,100358.60
2023-09-07T05:13:47.147Z,100363.90
2023-09-07T05:16:14.294Z,100359.28
2023-09-07T05:18:42.595Z,100363.66
2023-09-07T05:21:16.543Z,100368.73
2023-09-07T05:23:44.170Z,100375.52
2023-09-07T05:26:11.827Z,100370.44
2023-09-07T05:28:41.284Z,100377.63
2023-09-07T05:31:09.068Z,100378.02
2023-09-07T05:33:36.663Z,100380.32
2023-09-07T05:36:04.132Z,100376.54
2023-09-07T05:38:33.971Z,100376.64
2023-09-07T05:41:01.803Z,100386.21
2023-09-07T05:43:29.181Z,100376.47
2023-09-07T05:45:57.004Z,100374.30
2023-09-07T05:48:24.569Z,100384.40
2023-09-07T05:50:51.940Z,100389.19
2023-09-07T05:53:22.349Z,100388.02
2023-09-07T05:55:49.699Z,100390.33
2023-09-07T05:58:17.462Z,100388.23
2023-09-07T06:00:45.135Z,100391.21
2023-09-07T06:03:12.542Z,100388.48
2023-09-07T06:05:40.799Z,100386.76
2023-09-07T06:08:08.900Z,100392.71
2023-09-07T06:13:06.834Z,100387.59
2023-09-07T06:15:34.540Z,100398.40
2023-09-07T06:18:03.130Z,100399.50
2023-09-07T06:20:30.695Z,100406.14
2023-09-07T06:23:00.153Z,100400.88
2023-09-07T06:25:28.802Z,100391.87
2023-09-07T06:27:57.355Z,100405.16
2023-09-07T06:30:25.229Z,100407.96
2023-09-07T06:32:53.935Z,100413.10
2023-09-07T06:35:21.264Z,100421.32
2023-09-07T06:37:48.787Z,100420.90
2023-09-07T06:40:19.490Z,100422.35
2023-09-07T06:42:50.540Z,100420.89
2023-09-07T06:45:20.509Z,100421.30
2023-09-07T06:47:50.714Z,100421.38
2023-09-07T06:50:18.364Z,100421.34
2023-09-07T06:52:45.461Z,100421.75
2023-09-07T06:55:12.407Z,100421.05
2023-09-07T06:57:39.747Z,100419.18
2023-09-07T07:00:09.009Z,100417.11
2023-09-07T07:02:37.518Z,100419.96
2023-09-07T07:05:05.045Z,100417.56
2023-09-07T07:07:33.497Z,100416.73
2023-09-07T07:10:00.603Z,100411.89
2023-09-07T07:12:27.962Z,100414.48
2023-09-07T07:14:56.350Z,100416.02
2023-09-07T07:17:23.666Z,100417.36
2023-09-07T07:19:51.020Z,100415.73
2023-09-07T07:22:21.160Z,100425.85
2023-09-07T07:24:49.850Z,100421.48
2023-09-07T07:27:17.161Z,100425.34
2023-09-07T07:29:44.908Z,100427.63
2023-09-07T07:32:12.377Z,100425.65
2023-09-07T07:34:39.664Z,100425.58
2023-09-07T07:37:07.546Z,100430.69
2023-09-07T07:39:35.044Z,100434.70
2023-09-07T07:42:04.436Z,100436.89
2023-09-07T07:44:31.825Z,100441.54
2023-09-07T07:46:59.158Z,100444.73
2023-09-07T07:49:26.348Z,100441.62
2023-09-07T07:51:56.811Z,100443.73
2023-09-07T07:54:26.030Z,100448.06
2023-09-07T07:56:53.904Z,100453.00
2023-09-07T07:59:21.528Z,100448.52
2023-09-07T08:01:48.654Z,100440.64
2023-09-07T08:04:15.988Z,100453.91
2023-09-07T08:06:43.220Z,100456.98
2023-09-07T08:09:11.399Z,100458.48
2023-09-07T08:11:40.812Z,100453.02
2023-09-07T08:14:08.181Z,100456.23
2023-09-07T08:16:35.578Z,100450.25
2023-09-07T08:19:02.856Z,100449.64
2023-09-07T08:21:30.119Z,100451.59
2023-09-07T08:23:57.655Z,100451.31
2023-09-07T08:26:24.642Z,100451.27
2023-09-07T08:28:51.701Z,100448.54
2023-09-07T08:31:23.238Z,100457.06
2023-09-07T08:33:52.864Z,100455.63
2023-09-07T08:36:23.687Z,100458.73
2023-09-07T08:38:56.941Z,100450.78
2023-09-07T08:41:24.061Z,100456.36
2023-09-07T08:43:51.265Z,100455.13
2023-09-07T08:46:22.358Z,100457.06
2023-09-07T08:48:50.626Z,100459.15
2023-09-07T08:51:19.234Z,100455.23
2023-09-07T08:53:47.975Z,100456.09
2023-09-07T08:56:15.820Z,100460.55
2023-09-07T08:58:46.187Z,100462.45
2023-09-07T09:01:14.436Z,100461.98
2023-09-07T09:03:41.720Z,100461.71
2023-09-07T09:06:08.832Z,100456.80
2023-09-07T09:08:53.628Z,100465.64
2023-09-07T09:11:21.803Z,100458.39
2023-09-07T09:13:49.868Z,100463.95
2023-09-07T09:16:18.891Z,100465.21
2023-09-07T09:18:50.110Z,100465.01
2023-09-07T09:21:17.692Z,100472.69
2023-09-07T09:23:44.700Z,100472.91
2023-09-07T09:26:12.116Z,100474.88
2023-09-07T09:28:39.400Z,100476.79
2023-09-07T09:31:11.195Z,100489.09
2023-09-07T09:33:38.871Z,100482.66
2023-09-07T09:36:07.166Z,100487.71
2023-09-07T09:38:35.970Z,100486.73
2023-09-07T09:41:04.486Z,100488.61
2023-09-07T09:43:31.471Z,100492.81
2023-09-07T09:45:59.603Z,100492.34
2023-09-07T09:48:27.041Z,100483.98
2023-09-07T09:50:54.114Z,100483.01
2023-09-07T09:53:22.283Z,100487.52
2023-09-07T09:55:49.720Z,100489.61
2023-09-07T09:58:17.535Z,100490.04
2023-09-07T10:00:49.583Z,100490.08
2023-09-07T10:03:32.536Z,100493.02
2023-09-07T10:06:12.423Z,100486.16
2023-09-07T10:08:39.412Z,100483.64
2023-09-07T10:11:10.821Z,100492.34
2023-09-07T10:13:37.834Z,100494.75
2023-09-07T10:16:09.117Z,100491.23
2023-09-07T10:18:37.009Z,100491.45
2023-09-07T10:21:04.402Z,100486.66
2023-09-07T10:23:42.506Z,100495.05
2023-09-07T10:26:19.688Z,100491.72
2023-09-07T10:28:47.259Z,100500.67
2023-09-07T10:31:19.327Z,100492.71
2023-09-07T10:33:47.038Z,100492.32
2023-09-07T10:36:27.403Z,100500.39
2023-09-07T10:38:57.170Z,100498.85
2023-09-07T10:41:24.165Z,100500.67
2023-09-07T10:43:57.658Z,100500.82
2023-09-07T10:46:24.913Z,100495.86
2023-09-07T10:48:52.843Z,100498.63
2023-09-07T10:51:20.564Z,100499.44
2023-09-07T10:53:47.513Z,100504.66
2023-09-07T10:56:14.666Z,100500.11
2023-09-07T10:58:43.250Z,100498.48
2023-09-07T11:01:10.683Z,100497.22
2023-09-07T11:03:38.293Z,100498.79
2023-09-07T11:06:14.123Z,100504.51
2023-09-07T11:08:41.172Z,100494.09
2023-09-07T11:11:09.777Z,100496.86
2023-09-07T11:13:37.060Z,100493.41
2023-09-07T11:16:04.983Z,100494.90
2023-09-07T11:18:32.272Z,100498.08
2023-09-07T11:21:01.062Z,100494.17
2023-09-07T11:23:28.888Z,100500.85
2023-09-07T11:25:55.862Z,100498.94
2023-09-07T11:28:25.969Z,100497.54
2023-09-07T11:30:54.773Z,100494.13
2023-09-07T11:33:22.774Z,100487.42
2023-09-07T11:35:50.239Z,100489.72
2023-09-07T11:38:17.939Z,100485.36
2023-09-07T11:40:46.295Z,100476.45
2023-09-07T11:43:14.111Z,100479.35
2023-09-07T11:45:41.905Z,100484.05
2023-09-07T11:48:10.577Z,100495.31
2023-09-07T11:50:38.167Z,100495.60
2023-09-07T11:53:06.056Z,100497.02
2023-09-07T11:55:33.650Z,100494.17
2023-09-07T11:58:02.133Z,100496.69
2023-09-07T12:00:30.976Z,100497.13
2023-09-07T12:02:58.572Z,100493.19
2023-09-07T12:05:25.774Z,100493.09
2023-09-07T12:07:54.187Z,100490.54
2023-09-07T12:10:21.712Z,100496.71
2023-09-07T12:12:49.289Z,100485.02
2023-09-07T12:15:16.326Z,100493.63
2023-09-07T12:17:44.006Z,100498.71
2023-09-07T12:20:12.169Z,100489.94
2023-09-07T12:22:39.569Z,100490.70
2023-09-07T12:25:16.013Z,100494.33
2023-09-07T12:27:54.331Z,100481.49
2023-09-07T12:30:24.108Z,100491.65
2023-09-07T12:32:52.588Z,100484.34
2023-09-07T12:35:21.159Z,100488.04
2023-09-07T12:37:48.401Z,100488.40
2023-09-07T12:40:16.099Z,100485.19
2023-09-07T12:42:44.684Z,100489.44
2023-09-07T12:45:12.015Z,100491.25
2023-09-07T12:47:39.931Z,100487.83
2023-09-07T12:50:07.995Z,100499.69
2023-09-07T12:52:37.601Z,100497.28
2023-09-07T12:55:08.896Z,100494.77
2023-09-07T12:57:37.367Z,100496.21
2023-09-07T13:00:08.425Z,100489.31
2023-09-07T13:02:35.770Z,100492.33
2023-09-07T13:05:06.520Z,100496.52
2023-09-07T13:07:33.909Z,100493.89
2023-09-07T13:10:03.656Z,100498.30
2023-09-07T13:12:32.628Z,100496.48
2023-09-07T13:14:59.724Z,100497.76
2023-09-07T13:17:26.836Z,100495.92
2023-09-07T13:19:53.904Z,100497.23
2023-09-07T13:22:20.847Z,100499.31
2023-09-07T13:24:47.940Z,100494.83
2023-09-07T13:27:14.879Z,100492.30
2023-09-07T13:29:41.883Z,100490.25
2023-09-07T13:32:10.139Z,100491.19
2023-09-07T13:34:37.215Z,100484.46
2023-09-07T13:37:04.342Z,100498.62
2023-09-07T13:39:31.307Z,100493.92
2023-09-07T13:41:58.391Z,100485.52
2023-09-07T13:44:25.474Z,100490.63
2023-09-07T13:46:54.658Z,100499.69
2023-09-07T13:49:21.908Z,100496.46
2023-09-07T13:51:49.108Z,100497.69
2023-09-07T13:54:16.811Z,100495.95
2023-09-07T13:56:46.071Z,100494.63
2023-09-07T13:59:13.150Z,100489.52
2023-09-07T14:01:40.105Z,100487.44
2023-09-07T14:04:07.543Z,100481.77
2023-09-07T14:06:34.726Z,100486.05
2023-09-07T14:09:01.777Z,100470.80
2023-09-07T14:11:28.788Z,100479.55
2023-09-07T14:13:56.267Z,100485.94
2023-09-07T14:16:24.141Z,100485.46
2023-09-07T14:18:51.541Z,100478.08
2023-09-07T14:21:19.022Z,100485.09
2023-09-07T14:23:46.678Z,100483.83
2023-09-07T14:26:14.027Z,100490.05
2023-09-07T14:28:41.013Z,100492.59
2023-09-07T14:31:09.384Z,100488.65
2023-09-07T14:33:40.134Z,100494.96
2023-09-07T14:36:08.024Z,100487.88
2023-09-07T14:38:41.798Z,100487.70
2023-09-07T14:41:12.685Z,100489.20
2023-09-07T14:43:39.893Z,100492.77
2023-09-07T14:46:07.208Z,100491.82
2023-09-07T14:48:34.290Z,100498.51
2023-09-07T14:51:01.329Z,100498.95
2023-09-07T14:53:28.405Z,100498.45
2023-09-07T14:55:55.322Z,100499.02
2023-09-07T14:58:22.494Z,100498.19
2023-09-07T15:00:49.516Z,100492.98
2023-09-07T15:03:19.637Z,100496.89
2023-09-07T15:05:46.656Z,100496.30
2023-09-07T15:08:13.909Z,100502.50
2023-09-07T15:10:41.664Z,100506.54
2023-09-07T15:13:09.459Z,100507.09
2023-09-07T15:15:41.105Z,100513.67
2023-09-07T15:18:08.744Z,100509.05
2023-09-07T15:20:36.555Z,100504.53
2023-09-07T15:23:04.687Z,100511.50
2023-09-07T15:25:32.045Z,100509.81
2023-09-07T15:27:59.290Z,100507.85
2023-09-07T15:30:26.360Z,100516.52
2023-09-07T15:32:53.546Z,100512.21
2023-09-07T15:35:20.784Z,100506.16
2023-09-07T15:37:48.265Z,100507.18
2023-09-07T15:40:15.393Z,100509.21
2023-09-07T15:42:42.635Z,100511.22
2023-09-07T15:45:10.391Z,100516.34
2023-09-07T15:47:38.611Z,100517.48
2023-09-07T15:50:08.371Z,100516.08
2023-09-07T15:52:45.135Z,100516.04
2023-09-07T15:55:12.244Z,100516.76
2023-09-07T15:57:39.394Z,100520.36
2023-09-07T16:00:08.370Z,100525.69
2023-09-07T16:02:39.895Z,100530.30
2023-09-07T16:05:07.379Z,100527.39
2023-09-07T16:07:34.950Z,100528.04
2023-09-07T16:10:02.072Z,100532.12
2023-09-07T16:12:29.375Z,100536.55
2023-09-07T16:14:56.478Z,100540.79
2023-09-07T16:17:23.669Z,100537.58
2023-09-07T16:19:50.685Z,100540.73
2023-09-07T16:22:17.778Z,100546.88
2023-09-07T16:24:45.376Z,100547.88
2023-09-07T16:27:12.347Z,100551.55
2023-09-07T16:29:44.577Z,100554.92
2023-09-07T16:32:13.664Z,100557.17
2023-09-07T16:34:42.149Z,100561.63
2023-09-07T16:37:09.333Z,100558.85
2023-09-07T16:39:36.486Z,100563.64
2023-09-07T16:42:06.329Z,100567.98
2023-09-07T16:44:33.552Z,100569.29
2023-09-07T16:47:00.579Z,100569.17
2023-09-07T16:49:27.632Z,100569.71
2023-09-07T16:51:54.770Z,100577.09
2023-09-07T16:54:21.812Z,100574.45
2023-09-07T16:56:49.192Z,100576.39
2023-09-07T17:01:47.540Z,100577.31
2023-09-07T17:04:14.583Z,100576.52
2023-09-07T17:06:42.679Z,100579.63
2023-09-07T17:09:10.026Z,100580.54
2023-09-07T17:11:37.223Z,100579.28
2023-09-07T17:14:04.558Z,100581.27
2023-09-07T17:16:31.823Z,100582.29
2023-09-07T17:18:59.237Z,100584.79
2023-09-07T17:21:26.237Z,100585.39
2023-09-07T17:23:53.252Z,100588.78
2023-09-07T17:26:20.286Z,100583.14
2023-09-07T17:28:47.610Z,100581.88
2023-09-07T17:31:15.978Z,100587.13
2023-09-07T17:33:43.371Z,100582.84
2023-09-07T17:36:17.781Z,100578.84
2023-09-07T17:38:44.961Z,100582.41
2023-09-07T17:41:12.709Z,100584.92
2023-09-07T17:43:40.941Z,100588.88
2023-09-07T17:46:09.309Z,100588.99
2023-09-07T17:48:36.893Z,100592.20
2023-09-07T17:51:04.896Z,100595.63
2023-09-07T17:53:34.741Z,100590.86
2023-09-07T17:56:08.736Z,100596.28
2023-09-07T17:58:36.794Z,100601.14
2023-09-07T18:01:04.302Z,100599.34
2023-09-07T18:03:31.736Z,100593.98
2023-09-07T18:05:58.800Z,100599.45
2023-09-07T18:08:25.864Z,100599.27
2023-09-07T18:10:52.865Z,100600.15
2023-09-07T18:13:19.995Z,100601.42
2023-09-07T18:15:47.667Z,100603.80
2023-09-07T18:18:15.728Z,100603.91
2023-09-07T18:20:43.107Z,100606.45
2023-09-07T18:23:10.331Z,100607.23
2023-09-07T18:25:39.688Z,100607.06
2023-09-07T18:30:22.811Z,100605.85
2023-09-07T18:32:51.720Z,100604.68
2023-09-07T18:35:19.141Z,100603.66
2023-09-07T18:37:46.905Z,100607.98
2023-09-07T18:40:14.023Z,100607.27
2023-09-07T18:42:41.417Z,100610.48
2023-09-07T18:45:09.801Z,100612.99
2023-09-07T18:47:38.906Z,100615.70
2023-09-07T18:50:08.998Z,100613.51
2023-09-07T18:52:38.231Z,100613.33
2023-09-07T18:55:09.319Z,100616.09
2023-09-07T18:57:36.612Z,100616.09
2023-09-07T19:00:06.097Z,100609.30
2023-09-07T19:02:33.385Z,100612.08
2023-09-07T19:05:00.824Z,100614.04
2023-09-07T19:07:28.229Z,100614.17
2023-09-07T19:09:56.736Z,100615.13
2023-09-07T19:12:24.181Z,100613.50
2023-09-07T19:14:51.318Z,100614.70
2023-09-07T19:17:19.535Z,100617.96
2023-09-07T19:19:48.321Z,100618.16
2023-09-07T19:22:15.325Z,100613.34
2023-09-07T19:24:43.624Z,100612.20
2023-09-07T19:27:10.887Z,100609.30
2023-09-07T19:29:41.324Z,100608.33
2023-09-07T19:32:09.193Z,100609.09
2023-09-07T19:34:37.091Z,100605.70
2023-09-07T19:37:04.455Z,100608.23
2023-09-07T19:39:31.564Z,100607.23
2023-09-07T19:41:59.015Z,100608.10
2023-09-07T19:44:26.845Z,100612.69
2023-09-07T19:46:54.860Z,100613.09
2023-09-07T19:49:23.192Z,100615.77
2023-09-07T19:51:50.870Z,100614.38
2023-09-07T19:54:18.369Z,100613.81
2023-09-07T19:56:45.872Z,100614.46
2023-09-07T19:59:13.354Z,100613.40
2023-09-07T20:02:00.063Z,100611.95
2023-09-07T20:04:27.719Z,100609.52
2023-09-07T20:06:55.888Z,100611.70
2023-09-07T20:09:23.003Z,100615.38
2023-09-07T20:11:50.187Z,100615.86
2023-09-07T20:14:17.670Z,100613.52
2023-09-07T20:16:45.351Z,100617.17
2023-09-07T20:19:13.945Z,100622.77
2023-09-07T20:21:41.076Z,100620.70
2023-09-07T20:24:09.949Z,100623.33
2023-09-07T20:26:37.340Z,100625.52
2023-09-07T20:29:07.651Z,100623.59
2023-09-07T20:31:34.860Z,100623.94
2023-09-07T20:34:01.853Z,100624.29
2023-09-07T20:36:28.999Z,100623.61
2023-09-07T20:38:56.189Z,100622.57
2023-09-07T20:41:23.333Z,100622.52
2023-09-07T20:43:50.390Z,100623.35
2023-09-07T20:46:17.606Z,100621.70
2023-09-07T20:48:44.795Z,100617.79
2023-09-07T20:51:11.832Z,100614.51
2023-09-07T20:53:38.989Z,100616.98
2023-09-07T20:56:06.048Z,100613.48
2023-09-07T20:58:33.429Z,100608.54
2023-09-07T21:01:04.029Z,100604.53
2023-09-07T21:03:31.910Z,100605.89
2023-09-07T21:05:59.098Z,100605.89
2023-09-07T21:08:26.302Z,100607.00
2023-09-07T21:10:54.982Z,100604.28
2023-09-07T21:13:22.013Z,100606.33
2023-09-07T21:15:49.204Z,100604.66
2023-09-07T21:18:16.501Z,100609.88
2023-09-07T21:20:43.718Z,100609.94
2023-09-07T21:23:12.199Z,100610.86
2023-09-07T21:25:39.412Z,100612.23
2023-09-07T21:28:06.973Z,100614.50
2023-09-07T21:30:34.142Z,100613.18
2023-09-07T21:33:01.404Z,100608.07
2023-09-07T21:35:28.459Z,100607.21
2023-09-07T21:37:55.739Z,100612.46
2023-09-07T21:40:23.121Z,100618.98
2023-09-07T21:42:50.231Z,100621.02
2023-09-07T21:45:17.155Z,100621.58
2023-09-07T21:47:44.109Z,100623.98
2023-09-07T21:50:11.259Z,100623.20
2023-09-07T21:52:38.244Z,100619.30
2023-09-07T21:55:05.589Z,100618.11
2023-09-07T21:57:32.844Z,100620.83
2023-09-07T21:59:59.798Z,100620.58
2023-09-07T22:02:27.278Z,100624.30
2023-09-07T22:04:54.448Z,100622.86
2023-09-07T22:07:21.908Z,100623.23
2023-09-07T22:09:49.634Z,100621.86
2023-09-07T22:12:16.804Z,100622.36
2023-09-07T22:14:43.686Z,100623.33
2023-09-07T22:17:12.813Z,100621.58
2023-09-07T22:19:40.314Z,100619.60
2023-09-07T22:22:07.455Z,100620.14
2023-09-07T22:24:34.865Z,100616.32
2023-09-07T22:27:01.902Z,100616.42
2023-09-07T22:29:29.176Z,100613.05
2023-09-07T22:31:56.329Z,100611.45
2023-09-07T22:34:23.367Z,100612.30
2023-09-07T22:36:50.626Z,100610.92
2023-09-07T22:39:17.552Z,100614.69
2023-09-07T22:41:44.601Z,100614.63
2023-09-07T22:44:11.920Z,100612.59
2023-09-07T22:46:39.049Z,100612.36
2023-09-07T22:49:05.974Z,100612.59
2023-09-07T22:51:33.225Z,100611.19
2023-09-07T22:54:00.330Z,100611.45
2023-09-07T22:56:27.402Z,100611.04
2023-09-07T22:58:54.543Z,100607.16
2023-09-07T23:01:21.484Z,100604.66
2023-09-07T23:03:48.523Z,100602.59
2023-09-07T23:06:15.624Z,100603.75
2023-09-07T23:08:43.913Z,100604.42
2023-09-07T23:11:13.153Z,100606.55
2023-09-07T23:13:40.827Z,100611.48
2023-09-07T23:16:08.329Z,100607.91
2023-09-07T23:18:35.676Z,100610.31
2023-09-07T23:21:02.970Z,100607.27
2023-09-07T23:23:30.995Z,100602.89
2023-09-07T23:25:58.084Z,100598.31
2023-09-07T23:28:25.136Z,100600.13
2023-09-07T23:30:52.366Z,100597.87
2023-09-07T23:33:19.309Z,100601.09
2023-09-07T23:35:46.324Z,100600.70
2023-09-07T23:38:13.535Z,100598.93
2023-09-07T23:40:40.517Z,100601.90
2023-09-07T23:43:07.645Z,100599.89
2023-09-07T23:45:34.737Z,100598.16
2023-09-07T23:48:01.908Z,100601.60
2023-09-07T23:50:29.089Z,100597.73
2023-09-07T23:52:56.066Z,100601.42
2023-09-07T23:55:23.019Z,100600.32
2023-09-07T23:57:50.144Z,100598.86
